Time;durP1;ratioP1;P1;durP2;ratioP2;P2;SDS_P1;SDS_P2;PMS_P1;PMS_P2;Temp;Humidity;BMP_temperature;BMP_pressure;BME280_temperature;BME280_humidity;BME280_pressure;Samples;Min_cycle;Max_cycle;Signal;HPM_P1;HPM_P2
2022/04/17 00:00:11;;;;;;;6.13;3.13;;;8.90;57.60;;;;;;5019037;28;20470;-69
2022/04/17 00:02:39;;;;;;;9.93;3.77;;;8.90;57.70;;;;;;5013899;28;20499;-69
2022/04/17 00:05:09;;;;;;;5.80;3.47;;;8.90;57.70;;;;;;5015696;28;20460;-69
2022/04/17 00:07:39;;;;;;;7.40;4.30;;;8.90;57.70;;;;;;5014514;28;20488;-68
2022/04/17 00:10:08;;;;;;;7.10;3.90;;;8.90;57.90;;;;;;5015906;28;20470;-69
2022/04/17 00:12:37;;;;;;;5.57;3.07;;;8.90;57.80;;;;;;5015986;28;20525;-69
2022/04/17 00:15:06;;;;;;;8.83;4.40;;;8.90;58.00;;;;;;5015653;28;20465;-68
2022/04/17 00:17:37;;;;;;;7.07;3.67;;;9.00;58.00;;;;;;5015594;28;20460;-69
2022/04/17 00:20:06;;;;;;;5.73;3.13;;;9.10;58.10;;;;;;5019133;28;20460;-69
2022/04/17 00:22:34;;;;;;;5.53;2.90;;;9.20;58.10;;;;;;5019251;28;20496;-68
2022/04/17 00:25:03;;;;;;;12.87;4.53;;;9.20;57.90;;;;;;5018656;28;20463;-68
2022/04/17 00:27:31;;;;;;;24.20;11.73;;;9.20;57.90;;;;;;5021017;28;20522;-69
2022/04/17 00:29:59;;;;;;;13.47;7.07;;;9.20;57.90;;;;;;5035786;28;20475;-67
2022/04/17 00:32:28;;;;;;;14.33;7.30;;;9.20;57.90;;;;;;5016894;28;20543;-68
2022/04/17 00:34:56;;;;;;;9.10;4.30;;;9.20;57.90;;;;;;5016600;28;20484;-67
2022/04/17 00:37:24;;;;;;;8.20;4.33;;;9.20;57.90;;;;;;5018818;28;20467;-70
2022/04/17 00:39:52;;;;;;;10.80;5.70;;;9.20;57.90;;;;;;5012605;28;20456;-68
2022/04/17 00:42:21;;;;;;;10.20;5.50;;;9.20;58.10;;;;;;5013916;28;20480;-68
2022/04/17 00:44:49;;;;;;;6.63;4.27;;;9.20;58.10;;;;;;5014328;28;20478;-69
2022/04/17 00:47:17;;;;;;;11.10;4.30;;;9.10;57.90;;;;;;5017311;28;20851;-68
2022/04/17 00:49:46;;;;;;;10.33;5.63;;;9.00;58.00;;;;;;5015198;28;20933;-68
2022/04/17 00:52:14;;;;;;;6.70;3.80;;;8.90;58.10;;;;;;5020666;28;20495;-69
2022/04/17 00:54:46;;;;;;;8.50;3.90;;;8.80;58.20;;;;;;5016277;28;20547;-68
2022/04/17 00:57:16;;;;;;;7.80;4.40;;;8.70;58.20;;;;;;5018463;28;20456;-68
2022/04/17 00:59:48;;;;;;;8.20;3.60;;;8.60;58.30;;;;;;5018726;28;20459;-68
2022/04/17 01:02:17;;;;;;;7.13;3.83;;;8.60;58.40;;;;;;5016062;28;20484;-68
2022/04/17 01:04:46;;;;;;;8.00;4.10;;;8.50;58.50;;;;;;5013725;28;20456;-68
2022/04/17 01:07:14;;;;;;;9.23;5.25;;;8.50;58.50;;;;;;5014303;28;20476;-68
2022/04/17 01:09:44;;;;;;;10.55;5.15;;;8.50;58.70;;;;;;5012465;28;20835;-68
2022/04/17 01:12:13;;;;;;;9.00;5.20;;;8.40;58.70;;;;;;5009366;28;20233;-68
2022/04/17 01:14:42;;;;;;;6.90;3.50;;;8.40;58.90;;;;;;5013159;28;20301;-68
2022/04/17 01:17:12;;;;;;;5.67;4.13;;;8.40;59.10;;;;;;5012481;28;20240;-69
2022/04/17 01:19:40;;;;;;;5.33;3.87;;;8.40;59.10;;;;;;5010710;28;20444;-68
2022/04/17 01:22:12;;;;;;;6.65;3.95;;;8.40;59.20;;;;;;5011378;28;20912;-68
2022/04/17 01:27:26;;;;;;;6.22;3.60;;;8.50;59.30;;;;;;5014588;28;20482;-69
2022/04/17 01:29:54;;;;;;;4.90;3.10;;;8.50;59.30;;;;;;5013618;28;20684;-68
2022/04/17 01:32:23;;;;;;;8.43;3.58;;;8.50;59.40;;;;;;5012041;28;20503;-68
2022/04/17 01:34:52;;;;;;;5.97;3.37;;;8.50;59.40;;;;;;5013431;28;20206;-68
2022/04/17 01:37:21;;;;;;;7.53;4.00;;;8.50;59.40;;;;;;5013226;28;20432;-68
2022/04/17 01:39:49;;;;;;;7.53;3.70;;;8.50;59.40;;;;;;5013105;28;20519;-68
2022/04/17 01:42:17;;;;;;;7.73;3.80;;;8.50;59.50;;;;;;5015336;28;20507;-68
2022/04/17 01:44:45;;;;;;;6.65;4.00;;;8.50;59.50;;;;;;5016359;28;20860;-68
2022/04/17 01:47:13;;;;;;;6.87;3.40;;;8.50;59.50;;;;;;5012993;28;20328;-68
2022/04/17 01:49:41;;;;;;;6.75;4.40;;;8.50;59.50;;;;;;5014426;28;20465;-69
2022/04/17 01:52:09;;;;;;;6.22;3.65;;;8.40;59.40;;;;;;5017407;28;20234;-69
2022/04/17 01:54:39;;;;;;;5.95;3.85;;;8.30;59.50;;;;;;5018519;28;20283;-69
2022/04/17 01:57:07;;;;;;;6.73;3.93;;;8.30;59.60;;;;;;5015853;28;20205;-68
2022/04/17 01:59:35;;;;;;;10.35;4.18;;;8.20;59.60;;;;;;5015832;28;20880;-68
2022/04/17 02:02:03;;;;;;;6.70;3.63;;;8.10;59.60;;;;;;5016953;28;20252;-69
2022/04/17 02:04:35;;;;;;;9.17;4.20;;;8.10;59.60;;;;;;5015715;28;20499;-69
2022/04/17 02:07:03;;;;;;;7.45;4.05;;;7.90;59.70;;;;;;5016629;28;20475;-69
2022/04/17 02:09:39;;;;;;;6.55;3.55;;;7.80;60.00;;;;;;5022157;28;20209;-69
2022/04/17 02:12:07;;;;;;;9.68;3.97;;;7.70;60.00;;;;;;5022903;28;20682;-67
2022/04/17 02:14:35;;;;;;;6.93;4.22;;;7.60;60.10;;;;;;5014327;28;20268;-67
2022/04/17 02:17:03;;;;;;;12.60;5.03;;;7.50;60.20;;;;;;5016331;28;20299;-69
2022/04/17 02:19:32;;;;;;;5.15;3.75;;;7.50;60.30;;;;;;5016054;28;20622;-68
2022/04/17 02:21:59;;;;;;;6.30;4.05;;;7.40;60.40;;;;;;5017968;28;20706;-68
2022/04/17 02:24:27;;;;;;;7.35;4.68;;;7.30;60.60;;;;;;5014476;28;20228;-69
2022/04/17 02:26:57;;;;;;;7.88;4.50;;;7.10;60.60;;;;;;5014893;28;20209;-68
2022/04/17 02:29:25;;;;;;;7.32;4.40;;;7.10;60.90;;;;;;5016542;28;20259;-69
2022/04/17 02:31:53;;;;;;;6.40;3.75;;;7.10;61.00;;;;;;5009984;28;20962;-69
2022/04/17 02:34:21;;;;;;;6.10;3.95;;;7.10;61.30;;;;;;5017868;28;20213;-69
2022/04/17 02:36:49;;;;;;;8.57;5.13;;;7.20;61.50;;;;;;5016243;28;20206;-69
2022/04/17 02:39:17;;;;;;;6.82;4.50;;;7.30;61.40;;;;;;5017853;28;20996;-69
2022/04/17 02:41:45;;;;;;;5.10;3.70;;;7.30;61.30;;;;;;5016091;28;20201;-69
2022/04/17 02:44:14;;;;;;;11.07;4.53;;;7.20;61.40;;;;;;5012940;28;20233;-68
2022/04/17 02:49:27;;;;;;;7.60;4.45;;;7.20;61.40;;;;;;4992942;28;20223;-69
2022/04/17 02:51:55;;;;;;;9.05;4.63;;;7.20;61.40;;;;;;5016090;28;20209;-69
2022/04/17 02:54:23;;;;;;;7.82;3.97;;;7.10;61.60;;;;;;5018184;28;20532;-69
2022/04/17 02:56:51;;;;;;;12.70;6.35;;;7.00;61.50;;;;;;5011749;28;20210;-68
2022/04/17 02:59:20;;;;;;;8.48;5.13;;;7.00;61.70;;;;;;5030671;28;20310;-69
2022/04/17 03:07:19;;;;;;;6.53;3.35;;;6.80;62.00;;;;;;5019265;28;20561;-69
2022/04/17 03:09:48;;;;;;;13.32;5.25;;;6.90;62.20;;;;;;5012464;28;20218;-69
2022/04/17 03:12:15;;;;;;;13.20;7.75;;;6.90;62.40;;;;;;5015302;28;20236;-69
2022/04/17 03:14:46;;;;;;;11.90;7.82;;;7.00;62.60;;;;;;5014442;28;20217;-69
2022/04/17 03:17:14;;;;;;;13.70;5.40;;;7.10;62.40;;;;;;5012885;28;20263;-68
2022/04/17 03:19:42;;;;;;;15.15;6.78;;;7.10;62.30;;;;;;5013606;28;20205;-68
2022/04/17 03:22:10;;;;;;;10.45;5.35;;;7.10;62.20;;;;;;5011657;28;20230;-69
2022/04/17 03:24:38;;;;;;;7.50;4.70;;;7.10;62.20;;;;;;5013889;28;20201;-69
2022/04/17 03:27:06;;;;;;;11.75;6.20;;;7.00;62.30;;;;;;5013580;28;20660;-70
2022/04/17 03:29:34;;;;;;;10.13;6.55;;;7.00;62.30;;;;;;5010849;28;20213;-68
2022/04/17 03:32:03;;;;;;;9.45;6.05;;;7.00;62.40;;;;;;5015377;28;20633;-69
2022/04/17 03:34:31;;;;;;;9.35;5.75;;;7.00;62.60;;;;;;5012660;28;20198;-68
2022/04/17 03:36:59;;;;;;;8.00;5.10;;;7.00;62.50;;;;;;5011591;28;20201;-68
2022/04/17 03:39:27;;;;;;;14.23;7.03;;;7.00;62.40;;;;;;5011326;28;20678;-69
2022/04/17 03:41:55;;;;;;;7.88;4.75;;;7.00;62.50;;;;;;5020776;28;20193;-68
2022/04/17 03:44:23;;;;;;;11.95;4.63;;;7.00;62.40;;;;;;5013780;28;20209;-69
2022/04/17 03:46:51;;;;;;;6.70;4.40;;;7.00;62.40;;;;;;5011706;28;20241;-70
2022/04/17 03:49:20;;;;;;;8.70;5.10;;;6.90;62.60;;;;;;5017569;28;20229;-69
2022/04/17 03:51:48;;;;;;;9.80;4.75;;;6.90;62.60;;;;;;5016182;28;20228;-69
2022/04/17 03:54:17;;;;;;;9.35;4.20;;;6.80;62.60;;;;;;5017031;28;20211;-69
2022/04/17 03:56:46;;;;;;;7.88;4.32;;;6.80;62.80;;;;;;5016718;28;20212;-68
2022/04/17 03:59:14;;;;;;;7.10;4.43;;;6.80;62.90;;;;;;5016884;28;20196;-69
2022/04/17 04:01:42;;;;;;;9.23;6.10;;;6.90;63.00;;;;;;5016092;28;20236;-69
2022/04/17 04:04:10;;;;;;;74.47;35.60;;;7.00;63.10;;;;;;5022550;28;20240;-69
2022/04/17 04:06:39;;;;;;;29.17;15.77;;;7.00;62.90;;;;;;5020486;28;20205;-69
2022/04/17 04:09:07;;;;;;;19.77;10.57;;;7.00;62.70;;;;;;5021255;28;20634;-69
2022/04/17 04:11:35;;;;;;;7.85;5.07;;;6.90;62.70;;;;;;5016675;28;20206;-69
2022/04/17 04:14:05;;;;;;;9.25;5.00;;;6.80;62.70;;;;;;5018694;28;20234;-69
2022/04/17 04:16:33;;;;;;;5.80;4.43;;;6.70;62.80;;;;;;5014702;28;21083;-69
2022/04/17 04:19:02;;;;;;;6.10;4.22;;;6.70;63.00;;;;;;5017967;28;20286;-69
2022/04/17 04:21:30;;;;;;;7.70;5.68;;;6.70;63.20;;;;;;5019285;28;20201;-69
2022/04/17 04:23:59;;;;;;;10.52;5.50;;;6.80;63.30;;;;;;5021259;28;20221;-69
2022/04/17 04:26:30;;;;;;;17.13;8.43;;;6.80;63.20;;;;;;5019178;28;20198;-69
2022/04/17 04:28:58;;;;;;;7.93;4.90;;;6.90;63.20;;;;;;5024859;28;20846;-69
2022/04/17 04:31:26;;;;;;;9.18;4.63;;;6.80;63.00;;;;;;5020974;28;20229;-69
2022/04/17 04:33:54;;;;;;;7.07;4.65;;;6.80;63.10;;;;;;5019642;28;20513;-69
2022/04/17 04:36:22;;;;;;;6.95;4.70;;;6.70;63.20;;;;;;5021353;28;20197;-69
2022/04/17 04:38:50;;;;;;;15.43;10.02;;;6.80;63.30;;;;;;5019576;28;20209;-69
2022/04/17 04:41:21;;;;;;;18.52;11.60;;;6.80;63.40;;;;;;5016702;28;20647;-69
2022/04/17 04:43:49;;;;;;;12.50;6.95;;;6.80;63.30;;;;;;5017513;28;20265;-69
2022/04/17 04:46:17;;;;;;;16.38;9.95;;;6.80;63.30;;;;;;5014379;28;20232;-69
2022/04/17 04:51:31;;;;;;;16.15;8.65;;;6.80;63.40;;;;;;5018145;28;20909;-69
2022/04/17 04:53:59;;;;;;;31.00;18.52;;;6.80;63.40;;;;;;5019585;28;20226;-69
2022/04/17 04:56:28;;;;;;;21.02;11.90;;;6.90;63.50;;;;;;5018932;28;20209;-69
2022/04/17 04:58:56;;;;;;;8.73;5.38;;;6.90;63.30;;;;;;5020494;28;20198;-69
2022/04/17 05:01:24;;;;;;;8.80;6.05;;;6.80;63.40;;;;;;5013247;28;20234;-69
2022/04/17 05:03:52;;;;;;;12.57;8.60;;;7.10;65.10;;;;;;5017150;28;20236;-68
2022/04/17 05:06:20;;;;;;;16.38;7.38;;;8.00;65.70;;;;;;5009295;28;20198;-69
2022/04/17 05:08:48;;;;;;;10.70;7.60;;;9.20;65.10;;;;;;5017950;28;20218;-69
2022/04/17 05:11:16;;;;;;;8.40;5.83;;;10.30;63.90;;;;;;5018950;28;20475;-69
2022/04/17 05:13:45;;;;;;;13.20;6.00;;;11.40;62.60;;;;;;5019469;28;20483;-69
2022/04/17 05:16:14;;;;;;;8.30;5.17;;;12.40;61.20;;;;;;5016171;28;20492;-68
2022/04/17 05:18:42;;;;;;;7.27;5.03;;;13.40;60.20;;;;;;5018068;28;20457;-68
2022/04/17 05:21:10;;;;;;;6.60;5.10;;;14.30;59.10;;;;;;5018687;28;20467;-70
2022/04/17 05:23:38;;;;;;;9.20;5.80;;;15.20;58.10;;;;;;5019130;28;20575;-69
2022/04/17 05:26:06;;;;;;;8.50;5.77;;;16.00;57.00;;;;;;5022508;28;20483;-69
2022/04/17 05:28:34;;;;;;;10.27;5.00;;;16.70;55.90;;;;;;5015285;28;20564;-69
2022/04/17 05:31:03;;;;;;;8.10;5.33;;;17.40;55.00;;;;;;5017321;28;20472;-70
2022/04/17 05:33:31;;;;;;;10.27;5.00;;;18.10;54.10;;;;;;5015053;28;20851;-69
2022/04/17 05:35:59;;;;;;;7.30;4.87;;;18.80;53.00;;;;;;5014963;28;20463;-69
2022/04/17 05:38:27;;;;;;;8.70;5.17;;;19.50;51.90;;;;;;5014299;28;20460;-69
2022/04/17 05:40:56;;;;;;;6.80;4.00;;;20.00;50.80;;;;;;5013208;28;20452;-70
2022/04/17 05:43:24;;;;;;;7.70;4.17;;;20.50;49.80;;;;;;5016947;28;20476;-70
2022/04/17 05:45:52;;;;;;;9.03;4.10;;;20.50;47.50;;;;;;5016044;28;20518;-70
2022/04/17 05:48:21;;;;;;;7.40;4.03;;;19.20;46.50;;;;;;5020777;28;20464;-69
2022/04/17 05:50:49;;;;;;;8.10;4.80;;;17.40;46.80;;;;;;5023972;28;20483;-69
2022/04/17 05:53:18;;;;;;;8.90;4.90;;;15.70;47.40;;;;;;5018724;28;20479;-69
2022/04/17 05:55:46;;;;;;;6.33;4.00;;;14.20;48.40;;;;;;5014666;28;20547;-69
2022/04/17 05:58:14;;;;;;;7.47;4.60;;;13.00;49.30;;;;;;5018524;28;20964;-69
2022/04/17 06:00:44;;;;;;;9.57;4.70;;;12.10;50.20;;;;;;5018351;28;20487;-70
2022/04/17 06:03:15;;;;;;;7.90;4.43;;;11.30;51.10;;;;;;5017301;28;20579;-69
2022/04/17 06:05:45;;;;;;;6.17;4.20;;;10.80;52.00;;;;;;5018030;28;20460;-69
2022/04/17 06:08:13;;;;;;;6.60;4.33;;;10.30;52.90;;;;;;5012433;28;20884;-69
2022/04/17 06:10:41;;;;;;;8.47;5.67;;;10.00;53.50;;;;;;5012961;28;20480;-69
2022/04/17 06:13:09;;;;;;;10.70;7.53;;;9.70;54.10;;;;;;5013853;28;20550;-69
2022/04/17 06:15:38;;;;;;;9.97;6.80;;;9.50;54.50;;;;;;5016539;28;20461;-69
2022/04/17 06:18:06;;;;;;;11.10;6.20;;;9.40;54.80;;;;;;5015842;28;20514;-69
2022/04/17 06:20:34;;;;;;;10.80;6.37;;;9.20;55.20;;;;;;5015651;28;21012;-69
2022/04/17 06:23:04;;;;;;;6.60;4.37;;;9.10;55.60;;;;;;5018716;28;20480;-69
2022/04/17 06:25:32;;;;;;;11.73;5.40;;;9.00;55.90;;;;;;5021824;28;20472;-68
2022/04/17 06:28:00;;;;;;;6.90;4.60;;;9.00;56.20;;;;;;5023525;28;20463;-68
2022/04/17 06:30:28;;;;;;;13.73;4.60;;;8.80;56.60;;;;;;5029831;28;20481;-68
2022/04/17 06:32:56;;;;;;;8.73;4.50;;;8.80;57.10;;;;;;5016108;28;20480;-69
2022/04/17 06:35:25;;;;;;;8.93;4.87;;;8.70;57.20;;;;;;5012615;28;20467;-68
2022/04/17 06:37:59;;;;;;;6.97;5.17;;;8.70;57.50;;;;;;5011678;28;20546;-69
2022/04/17 06:40:31;;;;;;;14.43;9.60;;;8.70;57.90;;;;;;5011931;28;21008;-69
2022/04/17 06:43:01;;;;;;;11.73;6.50;;;8.70;58.20;;;;;;5010211;28;20481;-69
2022/04/17 06:45:30;;;;;;;12.57;9.47;;;8.70;58.30;;;;;;5010237;28;20234;-69
2022/04/17 06:48:00;;;;;;;32.83;20.90;;;8.80;58.50;;;;;;5012244;28;20468;-69
2022/04/17 06:50:28;;;;;;;10.73;7.23;;;8.80;58.80;;;;;;5015865;28;20479;-69
2022/04/17 06:52:59;;;;;;;8.60;5.53;;;8.80;58.90;;;;;;5009510;28;20489;-68
2022/04/17 06:55:28;;;;;;;8.27;4.30;;;8.90;59.10;;;;;;5013153;28;20468;-69
2022/04/17 06:57:56;;;;;;;9.57;5.83;;;9.00;59.30;;;;;;5015158;28;20990;-69
2022/04/17 07:00:24;;;;;;;8.13;4.13;;;9.00;59.40;;;;;;5017557;28;20452;-69
2022/04/17 07:02:52;;;;;;;7.00;4.70;;;9.10;59.50;;;;;;5014044;28;20986;-69
2022/04/17 07:05:20;;;;;;;7.33;3.90;;;9.10;59.40;;;;;;5010058;28;20480;-70
2022/04/17 07:07:57;;;;;;;7.53;4.70;;;9.10;59.50;;;;;;5010411;28;20962;-69
2022/04/17 07:10:25;;;;;;;8.90;4.13;;;9.10;59.60;;;;;;5020075;28;20474;-69
2022/04/17 07:12:55;;;;;;;12.80;7.03;;;9.10;59.60;;;;;;5013883;28;20481;-69
2022/04/17 07:15:24;;;;;;;9.70;4.50;;;9.10;59.70;;;;;;5012021;28;20456;-69
2022/04/17 07:17:53;;;;;;;7.53;5.00;;;9.20;59.80;;;;;;5010634;28;20944;-69
2022/04/17 07:20:22;;;;;;;12.73;7.47;;;9.20;59.90;;;;;;5013056;28;20459;-69
2022/04/17 07:22:50;;;;;;;8.83;5.03;;;9.20;60.00;;;;;;5011984;28;20492;-69
2022/04/17 07:25:21;;;;;;;12.57;7.60;;;9.30;60.00;;;;;;5015907;28;20475;-69
2022/04/17 07:27:50;;;;;;;7.83;4.80;;;9.30;60.00;;;;;;5017829;28;21195;-69
2022/04/17 07:30:23;;;;;;;8.77;4.93;;;9.30;60.20;;;;;;5020895;28;20471;-69
2022/04/17 07:32:53;;;;;;;6.47;4.20;;;9.40;60.20;;;;;;5021855;28;20598;-69
2022/04/17 07:35:21;;;;;;;7.47;4.63;;;9.40;60.30;;;;;;5021106;28;20493;-68
2022/04/17 07:37:50;;;;;;;12.70;4.30;;;9.50;60.20;;;;;;5018028;28;20452;-68
2022/04/17 07:40:21;;;;;;;7.80;4.10;;;9.50;60.20;;;;;;5019693;28;20468;-69
2022/04/17 07:42:50;;;;;;;7.67;4.87;;;9.60;60.20;;;;;;5020843;28;20868;-69
2022/04/17 07:45:21;;;;;;;7.47;4.40;;;9.60;60.20;;;;;;5020985;28;20455;-70
2022/04/17 07:47:50;;;;;;;7.83;4.03;;;9.70;60.40;;;;;;5017548;28;20464;-68
2022/04/17 07:50:19;;;;;;;7.00;3.70;;;9.70;60.30;;;;;;5017863;28;20467;-69
2022/04/17 07:52:47;;;;;;;7.30;3.67;;;9.70;60.30;;;;;;5018136;28;20475;-68
2022/04/17 07:55:16;;;;;;;6.10;3.63;;;9.80;60.40;;;;;;5018625;28;20462;-69
2022/04/17 07:58:07;;;;;;;5.43;3.60;;;9.90;60.50;;;;;;5017998;28;20467;-68
2022/04/17 08:00:47;;;;;;;7.50;4.60;;;10.00;60.40;;;;;;5016599;28;20463;-68
2022/04/17 08:03:24;;;;;;;7.00;3.43;;;10.00;60.40;;;;;;5017924;28;20498;-68
2022/04/17 08:05:53;;;;;;;7.90;3.57;;;10.10;60.30;;;;;;5022432;28;20930;-68
2022/04/17 08:08:21;;;;;;;6.10;3.37;;;10.20;60.10;;;;;;5019443;28;20478;-68
2022/04/17 08:10:49;;;;;;;12.93;5.70;;;10.20;60.10;;;;;;5019530;28;20824;-69
2022/04/17 08:13:18;;;;;;;11.53;8.40;;;10.30;60.00;;;;;;5020949;28;20577;-69
2022/04/17 08:15:47;;;;;;;7.23;3.10;;;10.40;59.90;;;;;;5017572;28;20475;-69
2022/04/17 08:18:15;;;;;;;9.97;5.10;;;10.40;59.80;;;;;;5014762;28;20599;-69
2022/04/17 08:20:44;;;;;;;7.63;3.87;;;10.50;59.30;;;;;;5014497;28;20480;-69
2022/04/17 08:23:12;;;;;;;8.80;4.20;;;10.50;59.50;;;;;;5014443;28;20472;-69
2022/04/17 08:25:41;;;;;;;10.90;3.73;;;10.60;59.50;;;;;;5019299;28;20474;-69
2022/04/17 08:28:09;;;;;;;10.40;3.30;;;10.60;59.20;;;;;;5014415;28;20447;-69
2022/04/17 08:30:38;;;;;;;5.70;3.57;;;10.70;59.10;;;;;;5015039;28;20538;-69
2022/04/17 08:33:09;;;;;;;5.47;2.30;;;10.80;59.00;;;;;;5018146;28;20490;-70
2022/04/17 08:35:37;;;;;;;6.70;2.50;;;10.80;58.80;;;;;;5040915;28;20530;-69
2022/04/17 08:38:05;;;;;;;6.40;3.80;;;10.90;58.50;;;;;;5027497;28;20440;-69
2022/04/17 08:40:33;;;;;;;5.73;3.07;;;11.00;58.20;;;;;;5025980;28;20460;-69
2022/04/17 08:43:01;;;;;;;6.70;3.30;;;11.00;58.00;;;;;;5022621;28;20487;-69
2022/04/17 08:45:29;;;;;;;8.93;4.57;;;11.10;58.10;;;;;;5018066;28;20485;-69
2022/04/17 08:47:57;;;;;;;5.63;3.77;;;11.10;58.00;;;;;;5017785;28;20917;-69
2022/04/17 08:50:27;;;;;;;7.03;3.23;;;11.20;57.70;;;;;;5013323;28;20470;-69
2022/04/17 08:52:55;;;;;;;6.10;2.80;;;11.20;57.40;;;;;;5015954;28;20475;-69
2022/04/17 08:55:23;;;;;;;5.47;2.50;;;11.20;57.30;;;;;;5013608;28;20486;-69
2022/04/17 08:57:52;;;;;;;8.50;3.87;;;11.20;57.00;;;;;;5015865;28;20464;-69
2022/04/17 09:00:20;;;;;;;8.80;4.07;;;11.30;57.20;;;;;;5015218;28;20541;-69
2022/04/17 09:02:50;;;;;;;9.30;4.00;;;11.30;56.60;;;;;;5018663;28;20473;-69
2022/04/17 09:05:21;;;;;;;7.27;2.83;;;11.30;56.40;;;;;;5018519;28;20444;-69
2022/04/17 09:07:53;;;;;;;11.90;4.60;;;11.40;56.40;;;;;;5016533;28;20455;-69
2022/04/17 09:10:27;;;;;;;9.17;4.50;;;11.40;56.40;;;;;;5016335;28;20451;-69
2022/04/17 09:12:56;;;;;;;10.10;4.63;;;11.50;56.30;;;;;;5025380;28;20480;-69
2022/04/17 09:15:26;;;;;;;13.00;5.90;;;11.50;56.20;;;;;;5019906;28;20452;-69
2022/04/17 09:17:54;;;;;;;13.23;4.50;;;11.50;56.00;;;;;;5022664;28;20459;-69
2022/04/17 09:20:24;;;;;;;13.50;5.57;;;11.60;56.00;;;;;;5018308;28;20459;-69
2022/04/17 09:22:55;;;;;;;5.90;3.10;;;11.60;56.10;;;;;;5015484;28;21012;-69
2022/04/17 09:25:24;;;;;;;5.43;2.97;;;11.70;55.80;;;;;;5016326;28;20444;-69
2022/04/17 09:28:01;;;;;;;5.00;2.50;;;11.80;55.80;;;;;;5016185;28;20465;-68
2022/04/17 09:30:31;;;;;;;10.50;5.57;;;11.80;55.70;;;;;;5015322;28;20465;-69
2022/04/17 09:33:03;;;;;;;10.67;4.03;;;11.80;55.40;;;;;;5017860;28;20487;-68
2022/04/17 09:35:31;;;;;;;11.83;6.33;;;11.80;55.30;;;;;;5019353;28;20464;-68
2022/04/17 09:38:03;;;;;;;6.50;3.50;;;11.80;55.50;;;;;;5016285;28;20456;-68
2022/04/17 09:40:32;;;;;;;7.30;3.43;;;11.90;55.50;;;;;;5017057;28;20509;-68
2022/04/17 09:43:10;;;;;;;8.70;3.50;;;12.00;54.70;;;;;;5016113;28;20485;-68
2022/04/17 09:45:58;;;;;;;10.37;5.20;;;12.10;55.00;;;;;;5013156;28;20459;-68
2022/04/17 09:48:30;;;;;;;7.67;4.30;;;12.10;55.00;;;;;;5017882;28;20451;-68
2022/04/17 09:50:58;;;;;;;10.33;2.50;;;12.20;54.90;;;;;;5018925;28;20453;-69
2022/04/17 09:53:36;;;;;;;5.33;2.90;;;12.20;54.90;;;;;;5018392;28;20541;-69
2022/04/17 09:56:09;;;;;;;8.90;3.27;;;12.30;54.60;;;;;;5022318;28;20463;-68
2022/04/17 09:58:38;;;;;;;11.83;5.27;;;12.30;54.50;;;;;;5016830;28;20452;-68
2022/04/17 10:01:16;;;;;;;7.40;3.40;;;12.30;54.10;;;;;;5012197;28;20472;-69
2022/04/17 10:03:44;;;;;;;5.63;2.63;;;12.40;54.10;;;;;;5015164;28;20482;-70
2022/04/17 10:06:13;;;;;;;5.70;2.60;;;12.40;54.00;;;;;;5017678;28;20463;-69
2022/04/17 10:08:44;;;;;;;12.80;2.60;;;12.50;53.90;;;;;;5013405;28;20454;-69
2022/04/17 10:11:14;;;;;;;6.70;2.73;;;12.50;53.80;;;;;;5014405;28;21373;-70
2022/04/17 10:13:45;;;;;;;6.43;2.60;;;12.50;53.40;;;;;;5014997;28;20482;-70
2022/04/17 10:16:16;;;;;;;5.43;2.80;;;12.60;53.50;;;;;;5017831;28;20479;-69
2022/04/17 10:18:46;;;;;;;5.60;2.93;;;12.70;53.30;;;;;;5015693;28;20455;-70
2022/04/17 10:21:16;;;;;;;8.97;3.77;;;12.70;53.10;;;;;;5020386;28;20454;-69
2022/04/17 10:23:48;;;;;;;6.27;3.33;;;12.80;53.20;;;;;;5016599;28;20490;-69
2022/04/17 10:26:18;;;;;;;8.27;4.10;;;12.80;53.00;;;;;;5023699;28;20521;-69
2022/04/17 10:28:51;;;;;;;6.30;3.03;;;12.80;53.10;;;;;;5023403;28;20460;-69
2022/04/17 10:31:20;;;;;;;5.40;2.70;;;12.90;53.20;;;;;;5022888;28;20513;-69
2022/04/17 10:34:20;;;;;;;9.37;4.87;;;13.00;52.80;;;;;;5020715;28;20493;-69
2022/04/17 10:37:13;;;;;;;5.73;2.83;;;12.90;52.60;;;;;;5018616;28;20461;-69
2022/04/17 10:39:49;;;;;;;6.77;3.00;;;13.00;52.70;;;;;;5017293;28;20475;-69
2022/04/17 10:42:17;;;;;;;5.00;2.47;;;13.00;52.80;;;;;;5017574;28;20458;-70
2022/04/17 10:45:01;;;;;;;7.00;3.17;;;13.00;52.70;;;;;;5010804;28;20471;-69
2022/04/17 10:47:30;;;;;;;5.97;2.60;;;13.00;52.30;;;;;;5005977;28;20670;-69
2022/04/17 10:50:00;;;;;;;5.00;2.40;;;13.00;52.40;;;;;;5012378;28;20444;-68
2022/04/17 10:52:30;;;;;;;5.97;2.63;;;13.10;52.00;;;;;;5015517;28;20495;-70
2022/04/17 10:55:10;;;;;;;9.53;3.03;;;13.10;52.10;;;;;;5017953;28;20464;-69
2022/04/17 10:57:45;;;;;;;6.93;2.80;;;13.10;52.20;;;;;;5019484;28;20599;-70
2022/04/17 11:00:27;;;;;;;7.37;3.30;;;13.10;52.10;;;;;;5025439;28;21122;-70
2022/04/17 11:03:23;;;;;;;5.97;3.47;;;13.20;52.20;;;;;;5030866;28;20540;-69
2022/04/17 11:06:13;;;;;;;5.33;2.50;;;13.20;52.20;;;;;;5025438;28;20452;-69
2022/04/17 11:08:56;;;;;;;6.20;2.83;;;13.20;52.30;;;;;;5022100;28;20451;-68
2022/04/17 11:11:35;;;;;;;5.90;3.07;;;13.20;52.20;;;;;;5019220;28;20466;-69
2022/04/17 11:14:11;;;;;;;6.37;3.07;;;13.30;51.90;;;;;;5021679;28;20467;-69
2022/04/17 11:16:47;;;;;;;7.20;3.47;;;13.30;51.80;;;;;;5017799;28;20477;-69
2022/04/17 11:19:16;;;;;;;7.97;3.40;;;13.20;52.00;;;;;;5019124;28;20481;-68
2022/04/17 11:21:45;;;;;;;5.27;2.17;;;13.30;52.00;;;;;;5020673;28;20457;-70
2022/04/17 11:24:13;;;;;;;5.17;2.50;;;13.30;51.70;;;;;;5020522;28;20476;-71
2022/04/17 11:27:13;;;;;;;5.77;2.23;;;13.30;51.10;;;;;;5020557;28;20456;-69
2022/04/17 11:29:44;;;;;;;7.73;2.30;;;13.30;50.90;;;;;;5000600;28;21133;-70
2022/04/17 11:32:47;;;;;;;6.23;2.50;;;13.40;51.10;;;;;;5014251;28;20479;-70
2022/04/17 11:35:16;;;;;;;4.90;2.13;;;13.40;50.50;;;;;;5023298;28;20458;-70
2022/04/17 11:37:52;;;;;;;4.40;2.43;;;13.50;50.70;;;;;;5021333;28;20457;-70
2022/04/17 11:40:22;;;;;;;4.67;2.23;;;13.50;50.70;;;;;;5018605;28;20463;-70
2022/04/17 11:42:53;;;;;;;5.53;2.10;;;13.60;50.40;;;;;;5018765;28;20499;-70
2022/04/17 11:45:23;;;;;;;6.20;1.93;;;13.60;50.50;;;;;;5020668;28;20471;-70
2022/04/17 11:47:51;;;;;;;5.50;2.10;;;13.70;50.20;;;;;;5014220;28;20461;-70
2022/04/17 11:50:26;;;;;;;4.60;2.43;;;13.70;50.00;;;;;;5015917;28;20469;-69
2022/04/17 11:52:56;;;;;;;5.87;2.80;;;13.70;49.60;;;;;;5022098;28;20472;-71
2022/04/17 11:55:29;;;;;;;5.87;2.60;;;13.80;49.80;;;;;;5023209;28;20459;-69
2022/04/17 11:58:00;;;;;;;6.20;2.70;;;13.80;49.80;;;;;;5022212;28;20470;-69
2022/04/17 12:00:29;;;;;;;7.00;4.77;;;13.90;50.00;;;;;;5012567;28;21047;-68
2022/04/17 12:03:01;;;;;;;8.73;4.83;;;13.90;49.90;;;;;;5015808;28;20476;-70
2022/04/17 12:05:31;;;;;;;5.50;2.20;;;13.90;49.60;;;;;;5016135;28;20438;-70
2022/04/17 12:08:09;;;;;;;7.60;3.27;;;13.90;49.90;;;;;;5016571;28;20458;-69
2022/04/17 12:10:40;;;;;;;4.47;2.03;;;13.90;50.00;;;;;;5015725;28;21020;-70
2022/04/17 12:13:17;;;;;;;5.03;2.43;;;14.00;49.60;;;;;;5016526;28;20493;-70
2022/04/17 12:15:47;;;;;;;5.30;2.40;;;14.10;49.20;;;;;;5013953;28;20474;-69
2022/04/17 12:18:19;;;;;;;7.13;2.10;;;14.10;49.10;;;;;;5021152;28;21010;-70
2022/04/17 12:21:02;;;;;;;5.43;2.20;;;14.10;49.30;;;;;;5018117;28;20996;-69
2022/04/17 12:23:32;;;;;;;7.17;3.20;;;14.10;49.10;;;;;;5033624;28;20568;-70
2022/04/17 12:26:05;;;;;;;5.10;2.00;;;14.20;49.10;;;;;;5020430;28;20491;-69
2022/04/17 12:28:34;;;;;;;5.00;2.10;;;14.20;48.70;;;;;;5018701;28;20464;-70
2022/04/17 12:31:02;;;;;;;4.40;1.83;;;14.30;48.50;;;;;;5023066;28;20494;-70
2022/04/17 12:33:31;;;;;;;9.00;3.27;;;14.30;48.60;;;;;;5020527;28;20480;-69
2022/04/17 12:36:03;;;;;;;4.73;1.83;;;14.40;48.40;;;;;;5019485;28;20808;-70
2022/04/17 12:38:31;;;;;;;5.47;1.80;;;14.30;47.70;;;;;;5013214;28;20469;-71
2022/04/17 12:40:59;;;;;;;4.30;1.70;;;14.40;47.40;;;;;;5011705;28;20468;-70
2022/04/17 12:43:30;;;;;;;16.40;7.70;;;14.40;47.50;;;;;;5019753;28;20484;-70
2022/04/17 12:46:03;;;;;;;5.93;2.40;;;14.40;47.70;;;;;;5020674;28;20480;-70
2022/04/17 12:48:33;;;;;;;4.80;2.10;;;14.40;47.80;;;;;;5018251;28;20526;-70
2022/04/17 12:51:04;;;;;;;6.93;2.23;;;14.50;47.70;;;;;;5013290;28;20465;-69
2022/04/17 12:53:36;;;;;;;9.30;5.37;;;14.50;47.70;;;;;;5012290;28;20496;-70
2022/04/17 12:56:05;;;;;;;11.97;7.73;;;14.50;47.30;;;;;;5012602;28;20807;-69
2022/04/17 12:58:53;;;;;;;6.20;2.90;;;14.50;47.20;;;;;;5019010;28;20537;-69
2022/04/17 13:01:23;;;;;;;5.00;2.60;;;14.50;47.30;;;;;;5016647;28;20543;-69
2022/04/17 13:04:10;;;;;;;4.33;2.10;;;14.60;47.70;;;;;;5020342;28;20468;-70
2022/04/17 13:06:39;;;;;;;4.60;2.60;;;14.60;47.50;;;;;;5016380;28;20496;-70
2022/04/17 13:09:12;;;;;;;5.33;2.60;;;14.70;47.60;;;;;;5012848;28;21188;-70
2022/04/17 13:11:43;;;;;;;9.93;5.63;;;14.70;47.60;;;;;;5017073;28;20492;-69
2022/04/17 13:14:11;;;;;;;12.57;7.30;;;14.70;47.40;;;;;;5019216;28;20476;-69
2022/04/17 13:17:01;;;;;;;10.60;5.53;;;14.70;47.10;;;;;;5016976;28;20495;-68
2022/04/17 13:19:31;;;;;;;8.20;3.90;;;14.70;47.50;;;;;;5019964;28;20462;-69